sensor_id;sensor_type;location;lat;lon;timestamp;temperature;humidity
28845;DHT22;15976;47.938;7.758;2023-10-08T00:01:04;13.40;56.10
28845;DHT22;15976;47.938;7.758;2023-10-08T00:03:33;13.40;56.10
28845;DHT22;15976;47.938;7.758;2023-10-08T00:06:04;13.40;56.10
28845;DHT22;15976;47.938;7.758;2023-10-08T00:08:34;13.40;56.20
28845;DHT22;15976;47.938;7.758;2023-10-08T00:11:02;13.40;56.50
28845;DHT22;15976;47.938;7.758;2023-10-08T00:13:37;13.30;56.50
28845;DHT22;15976;47.938;7.758;2023-10-08T00:16:11;13.30;56.50
28845;DHT22;15976;47.938;7.758;2023-10-08T00:18:43;13.30;56.50
28845;DHT22;15976;47.938;7.758;2023-10-08T00:21:20;13.30;56.50
28845;DHT22;15976;47.938;7.758;2023-10-08T00:23:53;13.30;56.50
28845;DHT22;15976;47.938;7.758;2023-10-08T00:26:27;13.20;56.50
28845;DHT22;15976;47.938;7.758;2023-10-08T00:28:56;13.20;56.40
28845;DHT22;15976;47.938;7.758;2023-10-08T00:31:26;13.30;56.40
28845;DHT22;15976;47.938;7.758;2023-10-08T00:34:04;13.30;56.50
28845;DHT22;15976;47.938;7.758;2023-10-08T00:36:41;13.20;56.60
28845;DHT22;15976;47.938;7.758;2023-10-08T00:39:10;13.30;56.60
28845;DHT22;15976;47.938;7.758;2023-10-08T00:41:41;13.20;56.60
28845;DHT22;15976;47.938;7.758;2023-10-08T00:44:11;13.20;56.70
28845;DHT22;15976;47.938;7.758;2023-10-08T00:47:04;13.20;56.70
28845;DHT22;15976;47.938;7.758;2023-10-08T00:49:33;13.20;56.90
28845;DHT22;15976;47.938;7.758;2023-10-08T00:52:12;13.10;57.00
28845;DHT22;15976;47.938;7.758;2023-10-08T00:54:39;13.10;57.00
28845;DHT22;15976;47.938;7.758;2023-10-08T00:57:22;13.10;57.00
28845;DHT22;15976;47.938;7.758;2023-10-08T00:59:50;13.00;57.00
28845;DHT22;15976;47.938;7.758;2023-10-08T01:02:21;13.00;57.00
28845;DHT22;15976;47.938;7.758;2023-10-08T01:04:51;13.00;57.20
28845;DHT22;15976;47.938;7.758;2023-10-08T01:07:18;13.00;57.20
28845;DHT22;15976;47.938;7.758;2023-10-08T01:09:45;13.00;57.30
28845;DHT22;15976;47.938;7.758;2023-10-08T01:12:25;13.00;57.50
28845;DHT22;15976;47.938;7.758;2023-10-08T01:15:01;12.90;57.50
28845;DHT22;15976;47.938;7.758;2023-10-08T01:17:43;12.90;57.70
28845;DHT22;15976;47.938;7.758;2023-10-08T01:20:27;12.90;57.70
28845;DHT22;15976;47.938;7.758;2023-10-08T01:25:37;12.80;57.70
28845;DHT22;15976;47.938;7.758;2023-10-08T01:28:05;12.80;57.90
28845;DHT22;15976;47.938;7.758;2023-10-08T01:30:44;12.80;57.90
28845;DHT22;15976;47.938;7.758;2023-10-08T01:33:14;12.80;58.10
28845;DHT22;15976;47.938;7.758;2023-10-08T01:35:42;12.80;58.10
28845;DHT22;15976;47.938;7.758;2023-10-08T01:38:10;12.70;58.20
28845;DHT22;15976;47.938;7.758;2023-10-08T01:52:57;12.60;58.50
28845;DHT22;15976;47.938;7.758;2023-10-08T01:55:27;12.50;58.40
28845;DHT22;15976;47.938;7.758;2023-10-08T01:57:57;12.60;58.50
28845;DHT22;15976;47.938;7.758;2023-10-08T02:00:24;12.50;58.50
28845;DHT22;15976;47.938;7.758;2023-10-08T02:02:53;12.50;58.60
28845;DHT22;15976;47.938;7.758;2023-10-08T02:05:26;12.50;58.80
28845;DHT22;15976;47.938;7.758;2023-10-08T02:07:54;12.50;58.80
28845;DHT22;15976;47.938;7.758;2023-10-08T02:10:22;12.50;58.70
28845;DHT22;15976;47.938;7.758;2023-10-08T02:12:52;12.50;58.70
28845;DHT22;15976;47.938;7.758;2023-10-08T02:15:19;12.40;58.70
28845;DHT22;15976;47.938;7.758;2023-10-08T02:17:47;12.40;58.70
28845;DHT22;15976;47.938;7.758;2023-10-08T02:20:16;12.40;58.60
28845;DHT22;15976;47.938;7.758;2023-10-08T02:22:43;12.40;58.60
28845;DHT22;15976;47.938;7.758;2023-10-08T02:25:13;12.40;58.60
28845;DHT22;15976;47.938;7.758;2023-10-08T02:27:40;12.40;58.70
28845;DHT22;15976;47.938;7.758;2023-10-08T02:30:08;12.40;58.70
28845;DHT22;15976;47.938;7.758;2023-10-08T02:32:37;12.40;58.80
28845;DHT22;15976;47.938;7.758;2023-10-08T02:35:04;12.40;58.80
28845;DHT22;15976;47.938;7.758;2023-10-08T02:37:32;12.40;58.80
28845;DHT22;15976;47.938;7.758;2023-10-08T02:40:02;12.30;58.80
28845;DHT22;15976;47.938;7.758;2023-10-08T02:42:39;12.30;58.80
28845;DHT22;15976;47.938;7.758;2023-10-08T02:45:08;12.30;58.80
28845;DHT22;15976;47.938;7.758;2023-10-08T02:47:41;12.30;58.80
28845;DHT22;15976;47.938;7.758;2023-10-08T02:50:09;12.30;58.80
28845;DHT22;15976;47.938;7.758;2023-10-08T02:52:43;12.30;58.80
28845;DHT22;15976;47.938;7.758;2023-10-08T02:55:13;12.30;58.80
28845;DHT22;15976;47.938;7.758;2023-10-08T02:57:54;12.30;58.80
28845;DHT22;15976;47.938;7.758;2023-10-08T03:00:24;12.30;58.80
28845;DHT22;15976;47.938;7.758;2023-10-08T03:02:57;12.30;58.80
28845;DHT22;15976;47.938;7.758;2023-10-08T03:05:25;12.30;58.80
28845;DHT22;15976;47.938;7.758;2023-10-08T03:07:57;12.30;59.40
28845;DHT22;15976;47.938;7.758;2023-10-08T03:13:23;12.30;58.90
28845;DHT22;15976;47.938;7.758;2023-10-08T03:15:50;12.20;58.80
28845;DHT22;15976;47.938;7.758;2023-10-08T03:18:30;12.20;58.90
28845;DHT22;15976;47.938;7.758;2023-10-08T03:21:03;12.20;58.80
28845;DHT22;15976;47.938;7.758;2023-10-08T03:23:31;12.20;58.90
28845;DHT22;15976;47.938;7.758;2023-10-08T03:26:03;12.20;59.00
28845;DHT22;15976;47.938;7.758;2023-10-08T03:28:33;12.20;59.00
28845;DHT22;15976;47.938;7.758;2023-10-08T03:31:01;12.20;59.60
28845;DHT22;15976;47.938;7.758;2023-10-08T03:33:33;12.20;59.10
28845;DHT22;15976;47.938;7.758;2023-10-08T03:36:07;12.20;59.20
28845;DHT22;15976;47.938;7.758;2023-10-08T03:39:01;12.10;59.20
28845;DHT22;15976;47.938;7.758;2023-10-08T03:41:38;12.10;59.30
28845;DHT22;15976;47.938;7.758;2023-10-08T03:44:07;12.10;59.30
28845;DHT22;15976;47.938;7.758;2023-10-08T03:46:40;12.10;59.40
28845;DHT22;15976;47.938;7.758;2023-10-08T03:49:10;12.00;59.40
28845;DHT22;15976;47.938;7.758;2023-10-08T03:51:57;12.10;59.40
28845;DHT22;15976;47.938;7.758;2023-10-08T03:54:24;12.00;59.40
28845;DHT22;15976;47.938;7.758;2023-10-08T03:57:02;12.00;59.40
28845;DHT22;15976;47.938;7.758;2023-10-08T03:59:40;12.00;59.70
28845;DHT22;15976;47.938;7.758;2023-10-08T04:02:08;12.00;59.80
28845;DHT22;15976;47.938;7.758;2023-10-08T04:04:42;12.00;59.80
28845;DHT22;15976;47.938;7.758;2023-10-08T04:07:20;12.00;59.90
28845;DHT22;15976;47.938;7.758;2023-10-08T04:09:54;11.90;59.80
28845;DHT22;15976;47.938;7.758;2023-10-08T04:12:36;11.90;59.80
28845;DHT22;15976;47.938;7.758;2023-10-08T04:15:11;11.90;59.90
28845;DHT22;15976;47.938;7.758;2023-10-08T04:17:47;11.90;60.10
28845;DHT22;15976;47.938;7.758;2023-10-08T04:20:18;11.90;60.00
28845;DHT22;15976;47.938;7.758;2023-10-08T04:23:07;11.90;60.00
28845;DHT22;15976;47.938;7.758;2023-10-08T04:25:41;11.90;60.00
28845;DHT22;15976;47.938;7.758;2023-10-08T04:28:11;11.90;60.00
28845;DHT22;15976;47.938;7.758;2023-10-08T04:30:44;11.90;60.30
28845;DHT22;15976;47.938;7.758;2023-10-08T04:33:12;11.90;60.50
28845;DHT22;15976;47.938;7.758;2023-10-08T04:35:43;11.90;60.50
28845;DHT22;15976;47.938;7.758;2023-10-08T04:38:23;11.90;60.60
28845;DHT22;15976;47.938;7.758;2023-10-08T04:40:52;11.80;60.80
28845;DHT22;15976;47.938;7.758;2023-10-08T04:43:21;11.80;60.90
28845;DHT22;15976;47.938;7.758;2023-10-08T04:45:58;11.70;60.80
28845;DHT22;15976;47.938;7.758;2023-10-08T04:48:25;11.70;60.90
28845;DHT22;15976;47.938;7.758;2023-10-08T04:50:57;11.70;60.90
28845;DHT22;15976;47.938;7.758;2023-10-08T04:53:29;11.70;61.10
28845;DHT22;15976;47.938;7.758;2023-10-08T04:56:06;11.70;61.20
28845;DHT22;15976;47.938;7.758;2023-10-08T04:58:34;11.70;61.20
28845;DHT22;15976;47.938;7.758;2023-10-08T05:01:03;11.70;61.30
28845;DHT22;15976;47.938;7.758;2023-10-08T05:03:46;11.70;61.60
28845;DHT22;15976;47.938;7.758;2023-10-08T05:06:24;11.60;61.60
28845;DHT22;15976;47.938;7.758;2023-10-08T05:09:03;11.60;61.60
28845;DHT22;15976;47.938;7.758;2023-10-08T05:11:53;11.60;61.70
28845;DHT22;15976;47.938;7.758;2023-10-08T05:14:21;11.50;61.70
28845;DHT22;15976;47.938;7.758;2023-10-08T05:17:03;11.50;61.70
28845;DHT22;15976;47.938;7.758;2023-10-08T05:19:40;11.60;62.00
28845;DHT22;15976;47.938;7.758;2023-10-08T05:22:08;11.60;61.90
28845;DHT22;15976;47.938;7.758;2023-10-08T05:24:48;11.50;61.90
28845;DHT22;15976;47.938;7.758;2023-10-08T05:27:35;11.50;62.00
28845;DHT22;15976;47.938;7.758;2023-10-08T05:30:16;11.50;62.00
28845;DHT22;15976;47.938;7.758;2023-10-08T05:32:44;11.50;62.20
28845;DHT22;15976;47.938;7.758;2023-10-08T05:35:35;11.50;62.60
28845;DHT22;15976;47.938;7.758;2023-10-08T05:38:09;11.50;62.60
28845;DHT22;15976;47.938;7.758;2023-10-08T05:40:55;11.40;62.50
28845;DHT22;15976;47.938;7.758;2023-10-08T05:46:12;11.40;62.70
28845;DHT22;15976;47.938;7.758;2023-10-08T05:48:50;11.40;62.70
28845;DHT22;15976;47.938;7.758;2023-10-08T05:51:36;11.40;62.70
28845;DHT22;15976;47.938;7.758;2023-10-08T05:54:20;11.40;62.70
28845;DHT22;15976;47.938;7.758;2023-10-08T05:57:14;11.40;62.80
28845;DHT22;15976;47.938;7.758;2023-10-08T06:00:01;11.50;62.70
28845;DHT22;15976;47.938;7.758;2023-10-08T06:02:30;11.50;62.70
28845;DHT22;15976;47.938;7.758;2023-10-08T06:05:05;11.50;62.60
28845;DHT22;15976;47.938;7.758;2023-10-08T06:10:20;11.50;63.30
28845;DHT22;15976;47.938;7.758;2023-10-08T06:12:58;11.60;62.50
28845;DHT22;15976;47.938;7.758;2023-10-08T06:18:21;11.70;62.80
28845;DHT22;15976;47.938;7.758;2023-10-08T06:20:55;11.70;62.60
28845;DHT22;15976;47.938;7.758;2023-10-08T06:27:01;11.80;62.40
28845;DHT22;15976;47.938;7.758;2023-10-08T06:29:31;11.90;62.30
28845;DHT22;15976;47.938;7.758;2023-10-08T06:31:59;11.90;62.20
28845;DHT22;15976;47.938;7.758;2023-10-08T06:37:29;12.10;62.50
28845;DHT22;15976;47.938;7.758;2023-10-08T06:40:01;12.10;62.40
28845;DHT22;15976;47.938;7.758;2023-10-08T06:43:33;12.20;62.30
28845;DHT22;15976;47.938;7.758;2023-10-08T06:46:03;12.30;62.10
28845;DHT22;15976;47.938;7.758;2023-10-08T06:48:30;12.30;61.90
28845;DHT22;15976;47.938;7.758;2023-10-08T06:50:57;12.40;61.80
28845;DHT22;15976;47.938;7.758;2023-10-08T06:53:25;12.40;61.80
28845;DHT22;15976;47.938;7.758;2023-10-08T06:55:52;12.50;62.80
28845;DHT22;15976;47.938;7.758;2023-10-08T06:58:23;12.50;61.90
28845;DHT22;15976;47.938;7.758;2023-10-08T07:00:51;12.60;61.90
28845;DHT22;15976;47.938;7.758;2023-10-08T07:03:18;12.70;61.80
28845;DHT22;15976;47.938;7.758;2023-10-08T07:05:48;12.90;61.50
28845;DHT22;15976;47.938;7.758;2023-10-08T07:08:26;13.20;61.30
28845;DHT22;15976;47.938;7.758;2023-10-08T07:10:54;13.70;60.00
28845;DHT22;15976;47.938;7.758;2023-10-08T07:13:23;14.10;59.00
28845;DHT22;15976;47.938;7.758;2023-10-08T07:15:52;14.60;58.00
28845;DHT22;15976;47.938;7.758;2023-10-08T07:18:20;15.00;57.20
28845;DHT22;15976;47.938;7.758;2023-10-08T07:20:55;15.40;56.50
28845;DHT22;15976;47.938;7.758;2023-10-08T07:23:28;15.90;55.70
28845;DHT22;15976;47.938;7.758;2023-10-08T07:26:02;16.40;54.80
28845;DHT22;15976;47.938;7.758;2023-10-08T07:28:40;16.80;54.00
28845;DHT22;15976;47.938;7.758;2023-10-08T07:35:12;17.60;52.50
28845;DHT22;15976;47.938;7.758;2023-10-08T07:37:51;18.20;51.60
28845;DHT22;15976;47.938;7.758;2023-10-08T07:40:21;18.50;51.10
28845;DHT22;15976;47.938;7.758;2023-10-08T07:42:49;18.90;51.10
28845;DHT22;15976;47.938;7.758;2023-10-08T07:45:20;19.20;50.00
28845;DHT22;15976;47.938;7.758;2023-10-08T07:47:49;19.60;49.60
28845;DHT22;15976;47.938;7.758;2023-10-08T07:50:17;19.90;49.00
28845;DHT22;15976;47.938;7.758;2023-10-08T07:52:46;19.80;49.50
28845;DHT22;15976;47.938;7.758;2023-10-08T07:55:15;19.30;49.80
28845;DHT22;15976;47.938;7.758;2023-10-08T07:57:47;18.70;51.00
28845;DHT22;15976;47.938;7.758;2023-10-08T08:00:18;18.30;52.20
28845;DHT22;15976;47.938;7.758;2023-10-08T08:02:49;17.90;53.10
28845;DHT22;15976;47.938;7.758;2023-10-08T08:08:38;17.50;54.30
28845;DHT22;15976;47.938;7.758;2023-10-08T08:14:55;17.20;54.90
28845;DHT22;15976;47.938;7.758;2023-10-08T08:17:23;17.10;55.10
28845;DHT22;15976;47.938;7.758;2023-10-08T08:19:52;17.10;55.30
28845;DHT22;15976;47.938;7.758;2023-10-08T08:22:20;17.10;55.30
28845;DHT22;15976;47.938;7.758;2023-10-08T08:24:50;17.10;55.40
28845;DHT22;15976;47.938;7.758;2023-10-08T08:27:24;17.10;55.50
28845;DHT22;15976;47.938;7.758;2023-10-08T08:29:54;17.10;55.40
28845;DHT22;15976;47.938;7.758;2023-10-08T08:32:23;17.10;55.40
28845;DHT22;15976;47.938;7.758;2023-10-08T08:34:51;17.10;55.40
28845;DHT22;15976;47.938;7.758;2023-10-08T08:37:19;17.10;55.40
28845;DHT22;15976;47.938;7.758;2023-10-08T08:39:53;17.10;55.40
28845;DHT22;15976;47.938;7.758;2023-10-08T08:42:24;17.20;55.50
28845;DHT22;15976;47.938;7.758;2023-10-08T08:44:54;17.20;55.50
28845;DHT22;15976;47.938;7.758;2023-10-08T08:47:28;17.30;55.50
28845;DHT22;15976;47.938;7.758;2023-10-08T08:49:59;17.40;55.50
28845;DHT22;15976;47.938;7.758;2023-10-08T08:52:37;17.50;55.50
28845;DHT22;15976;47.938;7.758;2023-10-08T08:55:08;17.50;55.40
28845;DHT22;15976;47.938;7.758;2023-10-08T08:57:43;17.60;55.50
28845;DHT22;15976;47.938;7.758;2023-10-08T09:00:16;17.70;55.50
28845;DHT22;15976;47.938;7.758;2023-10-08T09:02:48;17.80;55.50
28845;DHT22;15976;47.938;7.758;2023-10-08T09:05:27;17.80;55.40
28845;DHT22;15976;47.938;7.758;2023-10-08T09:08:08;18.00;55.30
28845;DHT22;15976;47.938;7.758;2023-10-08T09:11:25;18.00;55.20
28845;DHT22;15976;47.938;7.758;2023-10-08T09:14:05;18.10;55.00
28845;DHT22;15976;47.938;7.758;2023-10-08T09:16:38;18.20;54.90
28845;DHT22;15976;47.938;7.758;2023-10-08T09:19:10;18.30;54.70
28845;DHT22;15976;47.938;7.758;2023-10-08T09:22:00;18.40;54.50
28845;DHT22;15976;47.938;7.758;2023-10-08T09:24:40;18.50;54.40
28845;DHT22;15976;47.938;7.758;2023-10-08T09:27:12;18.60;54.30
28845;DHT22;15976;47.938;7.758;2023-10-08T09:29:54;18.70;54.30
28845;DHT22;15976;47.938;7.758;2023-10-08T09:32:29;18.80;54.20
28845;DHT22;15976;47.938;7.758;2023-10-08T09:35:00;18.90;54.10
28845;DHT22;15976;47.938;7.758;2023-10-08T09:37:36;19.00;53.90
28845;DHT22;15976;47.938;7.758;2023-10-08T09:40:11;19.00;53.80
28845;DHT22;15976;47.938;7.758;2023-10-08T09:42:39;19.10;53.70
28845;DHT22;15976;47.938;7.758;2023-10-08T09:45:16;19.10;53.60
28845;DHT22;15976;47.938;7.758;2023-10-08T09:47:52;19.20;53.60
28845;DHT22;15976;47.938;7.758;2023-10-08T09:50:31;19.30;53.50
28845;DHT22;15976;47.938;7.758;2023-10-08T09:53:35;19.30;53.40
28845;DHT22;15976;47.938;7.758;2023-10-08T09:57:27;19.40;53.20
28845;DHT22;15976;47.938;7.758;2023-10-08T10:00:00;19.50;52.90
28845;DHT22;15976;47.938;7.758;2023-10-08T10:02:30;19.60;52.50
28845;DHT22;15976;47.938;7.758;2023-10-08T10:05:01;19.70;52.20
28845;DHT22;15976;47.938;7.758;2023-10-08T10:07:32;19.80;52.00
28845;DHT22;15976;47.938;7.758;2023-10-08T10:10:01;20.00;51.80
28845;DHT22;15976;47.938;7.758;2023-10-08T10:12:29;20.20;51.70
28845;DHT22;15976;47.938;7.758;2023-10-08T10:14:59;20.30;51.50
28845;DHT22;15976;47.938;7.758;2023-10-08T10:17:29;20.40;51.30
28845;DHT22;15976;47.938;7.758;2023-10-08T10:20:12;20.50;51.20
28845;DHT22;15976;47.938;7.758;2023-10-08T10:22:44;20.70;50.80
28845;DHT22;15976;47.938;7.758;2023-10-08T10:25:33;21.00;50.30
28845;DHT22;15976;47.938;7.758;2023-10-08T10:30:33;21.50;50.00
28845;DHT22;15976;47.938;7.758;2023-10-08T10:33:02;21.60;49.00
28845;DHT22;15976;47.938;7.758;2023-10-08T10:35:37;21.80;48.60
28845;DHT22;15976;47.938;7.758;2023-10-08T10:38:09;21.90;48.30
28845;DHT22;15976;47.938;7.758;2023-10-08T10:40:40;22.10;48.10
28845;DHT22;15976;47.938;7.758;2023-10-08T10:43:09;22.20;47.70
28845;DHT22;15976;47.938;7.758;2023-10-08T10:45:38;22.30;47.50
28845;DHT22;15976;47.938;7.758;2023-10-08T10:48:14;22.40;47.30
28845;DHT22;15976;47.938;7.758;2023-10-08T10:50:50;22.50;47.10
28845;DHT22;15976;47.938;7.758;2023-10-08T10:53:38;22.60;47.10
28845;DHT22;15976;47.938;7.758;2023-10-08T10:56:13;22.70;47.10
28845;DHT22;15976;47.938;7.758;2023-10-08T10:58:47;22.80;47.20
28845;DHT22;15976;47.938;7.758;2023-10-08T11:01:27;22.80;47.20
28845;DHT22;15976;47.938;7.758;2023-10-08T11:03:57;22.80;47.10
28845;DHT22;15976;47.938;7.758;2023-10-08T11:06:29;22.80;47.10
28845;DHT22;15976;47.938;7.758;2023-10-08T11:09:01;22.90;47.30
28845;DHT22;15976;47.938;7.758;2023-10-08T11:11:33;22.90;47.30
28845;DHT22;15976;47.938;7.758;2023-10-08T11:14:03;22.90;48.00
28845;DHT22;15976;47.938;7.758;2023-10-08T11:16:58;22.70;47.70
28845;DHT22;15976;47.938;7.758;2023-10-08T11:20:03;22.60;47.90
28845;DHT22;15976;47.938;7.758;2023-10-08T11:23:00;22.60;48.10
28845;DHT22;15976;47.938;7.758;2023-10-08T11:25:56;22.60;48.70
28845;DHT22;15976;47.938;7.758;2023-10-08T11:28:32;22.80;48.00
28845;DHT22;15976;47.938;7.758;2023-10-08T11:31:08;23.00;47.70
28845;DHT22;15976;47.938;7.758;2023-10-08T11:33:40;23.20;47.30
28845;DHT22;15976;47.938;7.758;2023-10-08T11:36:10;23.30;47.10
28845;DHT22;15976;47.938;7.758;2023-10-08T11:38:47;23.40;47.10
28845;DHT22;15976;47.938;7.758;2023-10-08T11:41:21;23.30;47.40
28845;DHT22;15976;47.938;7.758;2023-10-08T11:47:45;23.20;47.60
28845;DHT22;15976;47.938;7.758;2023-10-08T11:51:12;23.30;47.20
28845;DHT22;15976;47.938;7.758;2023-10-08T11:53:45;23.30;47.30
28845;DHT22;15976;47.938;7.758;2023-10-08T11:56:13;23.30;46.90
28845;DHT22;15976;47.938;7.758;2023-10-08T11:58:44;23.40;46.10
28845;DHT22;15976;47.938;7.758;2023-10-08T12:01:12;23.40;45.70
28845;DHT22;15976;47.938;7.758;2023-10-08T12:03:46;23.40;45.30
28845;DHT22;15976;47.938;7.758;2023-10-08T12:06:17;23.50;45.20
28845;DHT22;15976;47.938;7.758;2023-10-08T12:08:48;23.50;45.10
28845;DHT22;15976;47.938;7.758;2023-10-08T12:11:20;23.70;44.80
28845;DHT22;15976;47.938;7.758;2023-10-08T12:13:50;23.70;44.50
28845;DHT22;15976;47.938;7.758;2023-10-08T12:16:19;23.80;44.40
28845;DHT22;15976;47.938;7.758;2023-10-08T12:18:51;23.90;44.20
28845;DHT22;15976;47.938;7.758;2023-10-08T12:21:26;24.00;44.00
28845;DHT22;15976;47.938;7.758;2023-10-08T12:24:00;24.10;43.80
28845;DHT22;15976;47.938;7.758;2023-10-08T12:26:34;24.10;43.60
28845;DHT22;15976;47.938;7.758;2023-10-08T12:29:04;24.20;43.40
28845;DHT22;15976;47.938;7.758;2023-10-08T12:31:35;24.30;43.20
28845;DHT22;15976;47.938;7.758;2023-10-08T12:34:04;24.50;42.90
28845;DHT22;15976;47.938;7.758;2023-10-08T12:36:33;24.70;42.80
28845;DHT22;15976;47.938;7.758;2023-10-08T12:39:04;24.80;42.50
28845;DHT22;15976;47.938;7.758;2023-10-08T12:41:43;24.90;42.30
28845;DHT22;15976;47.938;7.758;2023-10-08T12:44:13;24.90;41.40
28845;DHT22;15976;47.938;7.758;2023-10-08T12:46:43;24.90;41.00
28845;DHT22;15976;47.938;7.758;2023-10-08T12:49:11;24.90;40.70
28845;DHT22;15976;47.938;7.758;2023-10-08T12:51:38;24.90;39.90
28845;DHT22;15976;47.938;7.758;2023-10-08T12:54:08;24.90;39.20
28845;DHT22;15976;47.938;7.758;2023-10-08T12:56:39;25.00;38.70
28845;DHT22;15976;47.938;7.758;2023-10-08T12:59:12;25.10;38.20
28845;DHT22;15976;47.938;7.758;2023-10-08T13:01:51;25.20;37.80
28845;DHT22;15976;47.938;7.758;2023-10-08T13:04:18;25.30;37.30
28845;DHT22;15976;47.938;7.758;2023-10-08T13:06:55;25.40;36.40
28845;DHT22;15976;47.938;7.758;2023-10-08T13:09:28;25.50;36.60
28845;DHT22;15976;47.938;7.758;2023-10-08T13:11:59;25.50;36.70
28845;DHT22;15976;47.938;7.758;2023-10-08T13:14:29;25.50;36.80
28845;DHT22;15976;47.938;7.758;2023-10-08T13:16:56;25.60;36.70
28845;DHT22;15976;47.938;7.758;2023-10-08T13:19:23;25.70;36.80
28845;DHT22;15976;47.938;7.758;2023-10-08T13:21:51;25.80;37.00
28845;DHT22;15976;47.938;7.758;2023-10-08T13:24:19;25.80;37.10
28845;DHT22;15976;47.938;7.758;2023-10-08T13:26:51;25.80;36.90
28845;DHT22;15976;47.938;7.758;2023-10-08T13:29:18;25.90;37.10
28845;DHT22;15976;47.938;7.758;2023-10-08T13:31:46;25.90;37.20
28845;DHT22;15976;47.938;7.758;2023-10-08T13:34:14;26.00;37.50
28845;DHT22;15976;47.938;7.758;2023-10-08T13:36:43;26.00;37.40
28845;DHT22;15976;47.938;7.758;2023-10-08T13:39:14;26.00;37.10
28845;DHT22;15976;47.938;7.758;2023-10-08T13:41:51;26.10;37.20
28845;DHT22;15976;47.938;7.758;2023-10-08T13:44:23;26.20;37.30
28845;DHT22;15976;47.938;7.758;2023-10-08T13:46:57;26.20;37.30
28845;DHT22;15976;47.938;7.758;2023-10-08T13:49:26;26.20;37.20
28845;DHT22;15976;47.938;7.758;2023-10-08T13:51:53;26.20;37.10
28845;DHT22;15976;47.938;7.758;2023-10-08T13:54:24;26.20;36.80
28845;DHT22;15976;47.938;7.758;2023-10-08T13:56:57;26.20;36.60
28845;DHT22;15976;47.938;7.758;2023-10-08T13:59:27;26.20;36.80
28845;DHT22;15976;47.938;7.758;2023-10-08T14:02:01;26.20;36.70
28845;DHT22;15976;47.938;7.758;2023-10-08T14:04:43;26.10;36.60
28845;DHT22;15976;47.938;7.758;2023-10-08T14:07:13;26.20;36.30
28845;DHT22;15976;47.938;7.758;2023-10-08T14:09:46;26.20;36.10
28845;DHT22;15976;47.938;7.758;2023-10-08T14:12:25;26.10;35.90
28845;DHT22;15976;47.938;7.758;2023-10-08T14:15:06;26.20;35.70
28845;DHT22;15976;47.938;7.758;2023-10-08T14:17:45;26.10;35.40
28845;DHT22;15976;47.938;7.758;2023-10-08T14:20:17;26.20;35.60
28845;DHT22;15976;47.938;7.758;2023-10-08T14:22:50;26.10;34.80
28845;DHT22;15976;47.938;7.758;2023-10-08T14:25:27;26.20;34.70
28845;DHT22;15976;47.938;7.758;2023-10-08T14:27:57;26.20;34.50
28845;DHT22;15976;47.938;7.758;2023-10-08T14:30:33;26.30;34.30
28845;DHT22;15976;47.938;7.758;2023-10-08T14:33:09;26.30;34.30
28845;DHT22;15976;47.938;7.758;2023-10-08T14:35:41;26.30;34.30
28845;DHT22;15976;47.938;7.758;2023-10-08T14:38:45;26.30;34.40
28845;DHT22;15976;47.938;7.758;2023-10-08T14:41:33;26.30;34.30
28845;DHT22;15976;47.938;7.758;2023-10-08T14:44:19;26.30;34.30
28845;DHT22;15976;47.938;7.758;2023-10-08T14:46:51;26.20;34.10
28845;DHT22;15976;47.938;7.758;2023-10-08T14:49:23;26.20;34.10
28845;DHT22;15976;47.938;7.758;2023-10-08T14:51:52;26.10;34.30
28845;DHT22;15976;47.938;7.758;2023-10-08T14:54:22;26.00;34.40
28845;DHT22;15976;47.938;7.758;2023-10-08T14:56:52;26.00;34.50
28845;DHT22;15976;47.938;7.758;2023-10-08T14:59:20;26.00;34.50
28845;DHT22;15976;47.938;7.758;2023-10-08T15:01:48;26.10;34.50
28845;DHT22;15976;47.938;7.758;2023-10-08T15:04:17;26.00;34.50
28845;DHT22;15976;47.938;7.758;2023-10-08T15:06:45;26.10;35.30
28845;DHT22;15976;47.938;7.758;2023-10-08T15:09:12;26.10;36.60
28845;DHT22;15976;47.938;7.758;2023-10-08T15:11:48;26.10;37.40
28845;DHT22;15976;47.938;7.758;2023-10-08T15:14:15;26.20;37.90
28845;DHT22;15976;47.938;7.758;2023-10-08T15:16:42;26.20;38.30
28845;DHT22;15976;47.938;7.758;2023-10-08T15:19:10;26.30;39.00
28845;DHT22;15976;47.938;7.758;2023-10-08T15:21:39;26.30;38.60
28845;DHT22;15976;47.938;7.758;2023-10-08T15:24:06;26.40;38.30
28845;DHT22;15976;47.938;7.758;2023-10-08T15:26:38;26.40;36.70
28845;DHT22;15976;47.938;7.758;2023-10-08T15:29:08;26.60;35.90
28845;DHT22;15976;47.938;7.758;2023-10-08T15:31:36;26.70;37.20
28845;DHT22;15976;47.938;7.758;2023-10-08T15:34:04;26.80;38.30
28845;DHT22;15976;47.938;7.758;2023-10-08T15:36:31;26.90;39.20
28845;DHT22;15976;47.938;7.758;2023-10-08T15:38:59;26.90;39.80
28845;DHT22;15976;47.938;7.758;2023-10-08T15:41:28;26.90;40.20
28845;DHT22;15976;47.938;7.758;2023-10-08T15:43:55;26.70;40.40
28845;DHT22;15976;47.938;7.758;2023-10-08T15:46:25;26.50;41.10
28845;DHT22;15976;47.938;7.758;2023-10-08T15:48:53;26.30;41.20
28845;DHT22;15976;47.938;7.758;2023-10-08T15:51:21;26.10;41.40
28845;DHT22;15976;47.938;7.758;2023-10-08T15:53:48;25.90;40.80
28845;DHT22;15976;47.938;7.758;2023-10-08T15:56:15;25.70;39.70
28845;DHT22;15976;47.938;7.758;2023-10-08T15:58:42;25.50;38.90
28845;DHT22;15976;47.938;7.758;2023-10-08T16:01:09;25.40;38.60
28845;DHT22;15976;47.938;7.758;2023-10-08T16:03:38;25.20;38.50
28845;DHT22;15976;47.938;7.758;2023-10-08T16:06:06;25.00;38.60
28845;DHT22;15976;47.938;7.758;2023-10-08T16:08:33;24.80;38.90
28845;DHT22;15976;47.938;7.758;2023-10-08T16:11:00;24.70;39.10
28845;DHT22;15976;47.938;7.758;2023-10-08T16:13:27;24.50;39.70
28845;DHT22;15976;47.938;7.758;2023-10-08T16:15:54;24.30;40.80
28845;DHT22;15976;47.938;7.758;2023-10-08T16:18:22;24.20;41.60
28845;DHT22;15976;47.938;7.758;2023-10-08T16:20:49;24.00;41.60
28845;DHT22;15976;47.938;7.758;2023-10-08T16:23:16;23.80;41.30
28845;DHT22;15976;47.938;7.758;2023-10-08T16:25:44;23.60;40.50
28845;DHT22;15976;47.938;7.758;2023-10-08T16:31:58;23.30;40.60
28845;DHT22;15976;47.938;7.758;2023-10-08T16:34:25;22.90;41.20
28845;DHT22;15976;47.938;7.758;2023-10-08T16:36:54;22.90;41.70
28845;DHT22;15976;47.938;7.758;2023-10-08T16:39:21;22.80;42.10
28845;DHT22;15976;47.938;7.758;2023-10-08T16:41:53;22.70;42.50
28845;DHT22;15976;47.938;7.758;2023-10-08T16:44:23;22.50;42.90
28845;DHT22;15976;47.938;7.758;2023-10-08T16:46:52;22.40;43.30
28845;DHT22;15976;47.938;7.758;2023-10-08T16:49:20;22.20;43.60
28845;DHT22;15976;47.938;7.758;2023-10-08T16:51:48;22.10;43.70
28845;DHT22;15976;47.938;7.758;2023-10-08T16:58:35;21.80;43.10
28845;DHT22;15976;47.938;7.758;2023-10-08T17:04:52;21.50;44.10
28845;DHT22;15976;47.938;7.758;2023-10-08T17:07:20;21.30;44.80
28845;DHT22;15976;47.938;7.758;2023-10-08T17:09:50;21.20;45.70